Harmony Sp — 3FWE6 — position and weather

sailwx.info

Track history (hours):
 
Tides and Currents Weather Stations Pressure Air Temp Water Temp Dewpoint Dewpoint Depression Visibility Wind Speed Wind Dir Waves Ship Positions

Harmony Sp

Last reported at 2017-Feb-15 22:24 UTC. Time now 2017-Feb-27 02:12 UTC.
Position N 44°32' E 037°35'.
Warning: this ship's position is 11 days out of date.

MMSI: 353359712.

Date/timePositionNaut miles runAvg speedWind from/ knotsBaromVisibWave heightAir tempDewpointWater temp
2017-Feb-15 22:24N 44°32' E 037°35'8 9.0
2017-Feb-15 21:33N 44°35' E 037°45'8 7.8
2017-Feb-15 20:33N 44°42' E 037°49'2 2.0
2017-Feb-15 19:33N 44°44' E 037°48'0 0.0
2017-Feb-15 18:27N 44°44' E 037°48'0 0.0
2017-Feb-15 17:30N 44°44' E 037°48'0 0.0
2017-Feb-15 16:33N 44°44' E 037°48'0 0.0
2017-Feb-15 15:33N 44°44' E 037°48'0 0.0
2017-Feb-15 14:33N 44°44' E 037°48'0 0.0
2017-Feb-15 13:33N 44°44' E 037°48'0 0.0
2017-Feb-15 12:33N 44°44' E 037°48'0 0.0
2017-Feb-15 11:33N 44°44' E 037°48'0 0.0
2017-Feb-15 10:33N 44°44' E 037°48'0 0.0
2017-Feb-15 09:33N 44°44' E 037°48'0 0.0
2017-Feb-15 08:33N 44°44' E 037°48'0 0.0
2017-Feb-15 07:33N 44°44' E 037°48'0 0.0
2017-Feb-15 06:33N 44°44' E 037°48'0 0.0
2017-Feb-15 05:33N 44°44' E 037°48'0 0.0
2017-Feb-15 04:33N 44°44' E 037°48'0 0.0
2017-Feb-15 03:33N 44°44' E 037°48'0 0.0
2017-Feb-15 02:33N 44°44' E 037°48'0 0.0
2017-Feb-15 01:33N 44°44' E 037°48'0 0.0
2017-Feb-15 00:33N 44°44' E 037°48'0 0.0
2017-Feb-14 23:33N 44°44' E 037°48'0 0.0
2017-Feb-14 22:33N 44°44' E 037°48'0 0.0
2017-Feb-14 21:33N 44°44' E 037°48'0 0.0
2017-Feb-14 20:33N 44°44' E 037°48'0 0.0
2017-Feb-14 19:33N 44°44' E 037°48'0 0.0
2017-Feb-14 18:33N 44°44' E 037°48'0 0.0
2017-Feb-14 17:33N 44°44' E 037°48'0 0.0
2017-Feb-14 16:33N 44°44' E 037°48'0 0.0
2017-Feb-14 15:33N 44°44' E 037°48'0 0.0
2017-Feb-14 14:06N 44°44' E 037°48'0 0.0
2017-Feb-14 13:33N 44°44' E 037°48'0 0.0
2017-Feb-14 12:33N 44°44' E 037°48'0 0.0
2017-Feb-14 11:33N 44°44' E 037°48'0 0.0
2017-Feb-14 10:33N 44°44' E 037°48'0 0.0
2017-Feb-14 09:33N 44°44' E 037°48'0 0.0
2017-Feb-14 08:33N 44°44' E 037°48'0 0.0
2017-Feb-14 07:33N 44°44' E 037°48'0 0.0
2017-Feb-14 06:33N 44°44' E 037°48'0 0.0
2017-Feb-14 05:33N 44°44' E 037°48'0 0.0
2017-Feb-14 04:33N 44°44' E 037°48'0 0.0
2017-Feb-14 03:33N 44°44' E 037°48'0 0.0
2017-Feb-14 02:33N 44°44' E 037°48'0 0.0
2017-Feb-14 01:30N 44°44' E 037°48'0 0.0
2017-Feb-14 00:33N 44°44' E 037°48'1 0.7
2017-Feb-13 23:34N 44°43' E 037°48'6 5.6
2017-Feb-13 22:34N 44°38' E 037°52'6 6.4
2017-Feb-13 21:33N 44°32' E 037°56'8 7.8
2017-Feb-13 20:33N 44°30' E 038°06'0 0.1
2017-Feb-13 19:27N 44°30' E 038°06'0 0.0
2017-Feb-13 18:33N 44°30' E 038°06'0 0.0
2017-Feb-13 17:24N 44°30' E 038°06'0 0.0
2017-Feb-13 16:12N 44°30' E 038°06'0 0.0
2017-Feb-13 15:30N 44°30' E 038°06'0 0.0
2017-Feb-13 14:30N 44°30' E 038°06'0 0.0
2017-Feb-13 13:24N 44°30' E 038°06'0 0.0
2017-Feb-13 12:30N 44°30' E 038°06'0 0.0
2017-Feb-13 11:24N 44°30' E 038°06'0 0.0
2017-Feb-13 10:33N 44°30' E 038°06'0 0.0
2017-Feb-13 09:30N 44°30' E 038°06'0 0.0
2017-Feb-13 08:33N 44°30' E 038°06'0 0.0
2017-Feb-13 07:27N 44°30' E 038°06'0 0.0
2017-Feb-13 06:33N 44°30' E 038°06'0 0.0
2017-Feb-13 05:24N 44°30' E 038°06'0 0.0
2017-Feb-13 04:33N 44°30' E 038°06'0 0.0
2017-Feb-13 03:33N 44°30' E 038°06'0 0.0
2017-Feb-13 02:33N 44°30' E 038°06'0 0.0
2017-Feb-13 01:30N 44°30' E 038°06'0 0.0
2017-Feb-13 00:27N 44°30' E 038°06'0 0.0
2017-Feb-12 23:33N 44°30' E 038°06'0 0.0
2017-Feb-12 22:30N 44°30' E 038°06'0 0.0
2017-Feb-12 21:18N 44°30' E 038°06'0 0.0
2017-Feb-12 20:21N 44°30' E 038°06'0 0.0
2017-Feb-12 19:21N 44°30' E 038°06'0 0.0
2017-Feb-12 18:30N 44°30' E 038°06'0 0.0
2017-Feb-12 17:33N 44°30' E 038°06'0 0.0
2017-Feb-12 16:24N 44°30' E 038°06'0 0.0
2017-Feb-12 15:27N 44°30' E 038°06'0 0.0
2017-Feb-12 14:33N 44°30' E 038°06'0 0.0
2017-Feb-12 13:33N 44°30' E 038°06'0 0.0
2017-Feb-12 12:33N 44°30' E 038°06'0 0.0
2017-Feb-12 11:33N 44°30' E 038°06'0 0.0
2017-Feb-12 10:30N 44°30' E 038°06'0 0.0
2017-Feb-12 09:27N 44°30' E 038°06'0 0.0
2017-Feb-12 08:33N 44°30' E 038°06'0 0.0
2017-Feb-12 07:33N 44°30' E 038°06'0 0.0
2017-Feb-12 06:33N 44°30' E 038°06'0 0.0
2017-Feb-12 05:33N 44°30' E 038°06'0 0.0
2017-Feb-12 04:33N 44°30' E 038°06'0 0.0
2017-Feb-12 03:33N 44°30' E 038°06'0 0.0
2017-Feb-12 02:33N 44°30' E 038°06'0 0.0
2017-Feb-12 01:33N 44°30' E 038°06'0 0.0
2017-Feb-12 00:27N 44°30' E 038°06'0 0.0
2017-Feb-11 23:33N 44°30' E 038°06'0 0.0
2017-Feb-11 22:33N 44°30' E 038°06'0 0.0
2017-Feb-11 21:33N 44°30' E 038°06'0 0.0
2017-Feb-11 20:03N 44°30' E 038°06'0 0.0
2017-Feb-11 19:24N 44°30' E 038°06'0 0.1
2017-Feb-11 18:33N 44°30' E 038°06'0 0.0
2017-Feb-11 17:30N 44°30' E 038°06'0 0.0
2017-Feb-11 16:27N 44°30' E 038°06'0 0.0
2017-Feb-11 15:27N 44°30' E 038°06'0 0.0
2017-Feb-11 14:33N 44°30' E 038°06'0 0.0
2017-Feb-11 13:33N 44°30' E 038°06'0 0.0
2017-Feb-11 12:33N 44°30' E 038°06'0 0.0
2017-Feb-11 11:30N 44°30' E 038°06'0 0.0
2017-Feb-11 10:30N 44°30' E 038°06'0 0.0
2017-Feb-11 08:33N 44°30' E 038°06'0 0.0
2017-Feb-11 07:33N 44°30' E 038°06'0 0.0
2017-Feb-11 06:33N 44°30' E 038°06'0 0.0
2017-Feb-11 05:30N 44°30' E 038°06'0 0.0
2017-Feb-11 04:30N 44°30' E 038°06'0 0.0
2017-Feb-11 02:18N 44°30' E 038°06'0 0.0
2017-Feb-11 01:15N 44°30' E 038°06'0 0.0
2017-Feb-11 00:21N 44°30' E 038°06'0 0.0
2017-Feb-10 23:33N 44°30' E 038°06'0 0.0
2017-Feb-10 22:09N 44°30' E 038°06'0 0.0
2017-Feb-10 21:12N 44°30' E 038°06'0 0.0
2017-Feb-10 20:33N 44°30' E 038°06'0 0.0
2017-Feb-10 19:27N 44°30' E 038°06'0 0.0
2017-Feb-10 18:15N 44°30' E 038°06'0 0.0
2017-Feb-10 16:09N 44°30' E 038°06'0 0.0
2017-Feb-10 15:18N 44°30' E 038°06'0 0.0
2017-Feb-10 14:30N 44°30' E 038°06'0 0.0
2017-Feb-10 13:09N 44°30' E 038°06'0 0.1
2017-Feb-10 12:33N 44°30' E 038°06'0 0.0
2017-Feb-10 11:09N 44°30' E 038°06'0 0.0
2017-Feb-10 10:27N 44°30' E 038°06'0 0.0
2017-Feb-10 09:15N 44°30' E 038°06'0 0.0
2017-Feb-10 08:30N 44°30' E 038°06'0 0.0
2017-Feb-10 07:30N 44°30' E 038°06'0 0.0
2017-Feb-10 06:33N 44°30' E 038°06'0 0.0
2017-Feb-10 05:33N 44°30' E 038°06'0 0.0
2017-Feb-10 04:33N 44°30' E 038°06'0 0.0
2017-Feb-10 03:27N 44°30' E 038°06'0 0.0
2017-Feb-10 02:27N 44°30' E 038°06'0 0.0
2017-Feb-10 01:24N 44°30' E 038°06'0 0.0
2017-Feb-10 00:18N 44°30' E 038°06'0 0.0
2017-Feb-09 23:33N 44°30' E 038°06'0 0.0
2017-Feb-09 22:33N 44°30' E 038°06'0 0.0
2017-Feb-09 21:30N 44°30' E 038°06'0 0.0
2017-Feb-09 19:30N 44°30' E 038°06'0 0.0
2017-Feb-09 18:30N 44°30' E 038°06'0 0.0
2017-Feb-09 17:24N 44°30' E 038°06'0 0.0
2017-Feb-09 15:27N 44°30' E 038°06'0 0.0
2017-Feb-09 14:33N 44°30' E 038°06'0 0.0
2017-Feb-09 13:30N 44°30' E 038°06'0 0.0
2017-Feb-09 12:30N 44°30' E 038°06'0 0.0
2017-Feb-09 11:33N 44°30' E 038°06'0 0.0
2017-Feb-09 10:30N 44°30' E 038°06'0 0.0
2017-Feb-09 09:27N 44°30' E 038°06'0 0.0
2017-Feb-09 08:33N 44°30' E 038°06'0 0.0
2017-Feb-09 07:30N 44°30' E 038°06'0 0.0
2017-Feb-09 06:30N 44°30' E 038°06'0 0.0
2017-Feb-09 05:33N 44°30' E 038°06'0 0.0
2017-Feb-09 04:27N 44°30' E 038°06'0 0.0
2017-Feb-09 03:21N 44°30' E 038°06'0 0.0
2017-Feb-09 02:33N 44°30' E 038°06'0 0.0
2017-Feb-09 01:12N 44°30' E 038°06'0 0.0
2017-Feb-09 00:33N 44°30' E 038°06'0 0.0
2017-Feb-08 23:24N 44°30' E 038°06'0 0.0
2017-Feb-08 22:24N 44°30' E 038°06'0 0.0
2017-Feb-08 21:12N 44°30' E 038°06'0 0.0
2017-Feb-08 20:33N 44°30' E 038°06'0 0.0
2017-Feb-08 19:27N 44°30' E 038°06'0 0.0
2017-Feb-08 18:30N 44°30' E 038°06'0 0.0
2017-Feb-08 17:33N 44°30' E 038°06'0 0.0
2017-Feb-08 16:06N 44°30' E 038°06'0 0.0
2017-Feb-08 15:33N 44°30' E 038°06'0 0.0
2017-Feb-08 14:33N 44°30' E 038°06'1 0.8
2017-Feb-08 13:33N 44°30' E 038°05'1010.1
2017-Feb-08 12:33N 44°35' E 037°53'4 3.7
2017-Feb-08 11:25N 44°39' E 037°53'0 0.0
2017-Feb-08 10:31N 44°39' E 037°53'0 0.0
2017-Feb-08 09:31N 44°39' E 037°53'0 0.0
2017-Feb-08 08:31N 44°39' E 037°53'0 0.0
2017-Feb-08 07:31N 44°39' E 037°53'0 0.0
2017-Feb-08 06:31N 44°39' E 037°53'0 0.0
2017-Feb-08 05:31N 44°39' E 037°53'0 0.0
2017-Feb-08 04:31N 44°39' E 037°53'0 0.0
2017-Feb-08 03:31N 44°39' E 037°53'0 0.0
2017-Feb-08 02:31N 44°39' E 037°53'0 0.0
2017-Feb-08 01:31N 44°39' E 037°53'0 0.0
2017-Feb-08 00:31N 44°39' E 037°53'0 0.0
2017-Feb-07 23:31N 44°39' E 037°53'0 0.0
2017-Feb-07 22:31N 44°39' E 037°53'0 0.0
2017-Feb-07 21:31N 44°39' E 037°53'0 0.1
2017-Feb-07 20:28N 44°39' E 037°53'0 0.1
2017-Feb-07 19:31N 44°40' E 037°54'0 0.0
2017-Feb-07 18:31N 44°40' E 037°53'0 0.0
2017-Feb-07 17:31N 44°40' E 037°53'0 0.0
2017-Feb-07 16:31N 44°40' E 037°53'0 0.0
2017-Feb-07 15:31N 44°40' E 037°53'0 0.1
2017-Feb-07 14:31N 44°40' E 037°53'0 0.0
2017-Feb-07 13:28N 44°40' E 037°53'0 0.0
2017-Feb-07 12:31N 44°40' E 037°53'0 0.1
2017-Feb-07 11:31N 44°40' E 037°53'0 0.0
2017-Feb-07 10:28N 44°40' E 037°53'0 0.1
2017-Feb-07 09:31N 44°40' E 037°53'0 0.1
2017-Feb-07 08:31N 44°40' E 037°53'0 0.0
2017-Feb-07 07:31N 44°40' E 037°53'0 0.0
2017-Feb-07 06:31N 44°40' E 037°53'0 0.0
2017-Feb-07 05:28N 44°40' E 037°53'0 0.0
2017-Feb-07 04:31N 44°40' E 037°53'0 0.0
2017-Feb-07 03:31N 44°40' E 037°53'0 0.0
2017-Feb-07 02:31N 44°40' E 037°53'0 0.0
2017-Feb-07 01:31N 44°40' E 037°53'0 0.0
2017-Feb-07 00:28N 44°40' E 037°53'0 0.0
2017-Feb-06 23:31N 44°40' E 037°53'0 0.0
2017-Feb-06 22:31N 44°40' E 037°53'0 0.0
2017-Feb-06 21:31N 44°40' E 037°53'0 0.0
2017-Feb-06 20:31N 44°40' E 037°53'0 0.0
2017-Feb-06 19:28N 44°40' E 037°53'0 0.0
2017-Feb-06 18:28N 44°40' E 037°53'0 0.0
2017-Feb-06 17:31N 44°40' E 037°53'0 0.0
2017-Feb-06 16:31N 44°40' E 037°53'0 0.0
2017-Feb-06 15:31N 44°40' E 037°53'0 0.0
2017-Feb-06 14:31N 44°40' E 037°54'0 0.0
2017-Feb-06 13:31N 44°40' E 037°53'0 0.0
2017-Feb-06 12:31N 44°40' E 037°53'0 0.0
2017-Feb-06 11:31N 44°40' E 037°53'0 0.0
2017-Feb-06 10:31N 44°40' E 037°53'0 0.0
2017-Feb-06 09:31N 44°40' E 037°53'0 0.1
2017-Feb-06 08:31N 44°40' E 037°53'0 0.0
2017-Feb-06 07:31N 44°40' E 037°53'0 0.0
2017-Feb-06 06:31N 44°40' E 037°53'0 0.0
2017-Feb-06 05:31N 44°40' E 037°53'0 0.0
2017-Feb-06 04:28N 44°40' E 037°53'0 0.0
2017-Feb-06 03:31N 44°40' E 037°53'0 0.0
2017-Feb-06 02:28N 44°40' E 037°53'0 0.0
2017-Feb-06 01:31N 44°40' E 037°53'0 0.0
2017-Feb-06 00:31N 44°40' E 037°53'0 0.0
2017-Feb-05 23:31N 44°40' E 037°53'0 0.0
2017-Feb-05 22:31N 44°40' E 037°53'  
Track history (hours):
 
Tides and Currents Weather Stations Pressure Air Temp Water Temp Dewpoint Dewpoint Depression Visibility Wind Speed Wind Dir Waves Ship Positions

Harmony Sp

Last reported at 2017-Feb-15 22:24 UTC. Time now 2017-Feb-27 02:12 UTC.
Position N 44°32' E 037°35'.
Warning: this ship's position is 11 days out of date.

MMSI: 353359712.

Date/timePositionNaut miles runAvg speedWind from/ knotsBaromVisibWave heightAir tempDewpointWater temp
2017-Feb-15 22:24N 44°32' E 037°35'8 9.0
2017-Feb-15 21:33N 44°35' E 037°45'8 7.8
2017-Feb-15 20:33N 44°42' E 037°49'2 2.0
2017-Feb-15 19:33N 44°44' E 037°48'0 0.0
2017-Feb-15 18:27N 44°44' E 037°48'0 0.0
2017-Feb-15 17:30N 44°44' E 037°48'0 0.0
2017-Feb-15 16:33N 44°44' E 037°48'0 0.0
2017-Feb-15 15:33N 44°44' E 037°48'0 0.0
2017-Feb-15 14:33N 44°44' E 037°48'0 0.0
2017-Feb-15 13:33N 44°44' E 037°48'0 0.0
2017-Feb-15 12:33N 44°44' E 037°48'0 0.0
2017-Feb-15 11:33N 44°44' E 037°48'0 0.0
2017-Feb-15 10:33N 44°44' E 037°48'0 0.0
2017-Feb-15 09:33N 44°44' E 037°48'0 0.0
2017-Feb-15 08:33N 44°44' E 037°48'0 0.0
2017-Feb-15 07:33N 44°44' E 037°48'0 0.0
2017-Feb-15 06:33N 44°44' E 037°48'0 0.0
2017-Feb-15 05:33N 44°44' E 037°48'0 0.0
2017-Feb-15 04:33N 44°44' E 037°48'0 0.0
2017-Feb-15 03:33N 44°44' E 037°48'0 0.0
2017-Feb-15 02:33N 44°44' E 037°48'0 0.0
2017-Feb-15 01:33N 44°44' E 037°48'0 0.0
2017-Feb-15 00:33N 44°44' E 037°48'0 0.0
2017-Feb-14 23:33N 44°44' E 037°48'0 0.0
2017-Feb-14 22:33N 44°44' E 037°48'0 0.0
2017-Feb-14 21:33N 44°44' E 037°48'0 0.0
2017-Feb-14 20:33N 44°44' E 037°48'0 0.0
2017-Feb-14 19:33N 44°44' E 037°48'0 0.0
2017-Feb-14 18:33N 44°44' E 037°48'0 0.0
2017-Feb-14 17:33N 44°44' E 037°48'0 0.0
2017-Feb-14 16:33N 44°44' E 037°48'0 0.0
2017-Feb-14 15:33N 44°44' E 037°48'0 0.0
2017-Feb-14 14:06N 44°44' E 037°48'0 0.0
2017-Feb-14 13:33N 44°44' E 037°48'0 0.0
2017-Feb-14 12:33N 44°44' E 037°48'0 0.0
2017-Feb-14 11:33N 44°44' E 037°48'0 0.0
2017-Feb-14 10:33N 44°44' E 037°48'0 0.0
2017-Feb-14 09:33N 44°44' E 037°48'0 0.0
2017-Feb-14 08:33N 44°44' E 037°48'0 0.0
2017-Feb-14 07:33N 44°44' E 037°48'0 0.0
2017-Feb-14 06:33N 44°44' E 037°48'0 0.0
2017-Feb-14 05:33N 44°44' E 037°48'0 0.0
2017-Feb-14 04:33N 44°44' E 037°48'0 0.0
2017-Feb-14 03:33N 44°44' E 037°48'0 0.0
2017-Feb-14 02:33N 44°44' E 037°48'0 0.0
2017-Feb-14 01:30N 44°44' E 037°48'0 0.0
2017-Feb-14 00:33N 44°44' E 037°48'1 0.7
2017-Feb-13 23:34N 44°43' E 037°48'6 5.6
2017-Feb-13 22:34N 44°38' E 037°52'6 6.4
2017-Feb-13 21:33N 44°32' E 037°56'8 7.8
2017-Feb-13 20:33N 44°30' E 038°06'0 0.1
2017-Feb-13 19:27N 44°30' E 038°06'0 0.0
2017-Feb-13 18:33N 44°30' E 038°06'0 0.0
2017-Feb-13 17:24N 44°30' E 038°06'0 0.0
2017-Feb-13 16:12N 44°30' E 038°06'0 0.0
2017-Feb-13 15:30N 44°30' E 038°06'0 0.0
2017-Feb-13 14:30N 44°30' E 038°06'0 0.0
2017-Feb-13 13:24N 44°30' E 038°06'0 0.0
2017-Feb-13 12:30N 44°30' E 038°06'0 0.0
2017-Feb-13 11:24N 44°30' E 038°06'0 0.0
2017-Feb-13 10:33N 44°30' E 038°06'0 0.0
2017-Feb-13 09:30N 44°30' E 038°06'0 0.0
2017-Feb-13 08:33N 44°30' E 038°06'0 0.0
2017-Feb-13 07:27N 44°30' E 038°06'0 0.0
2017-Feb-13 06:33N 44°30' E 038°06'0 0.0
2017-Feb-13 05:24N 44°30' E 038°06'0 0.0
2017-Feb-13 04:33N 44°30' E 038°06'0 0.0
2017-Feb-13 03:33N 44°30' E 038°06'0 0.0
2017-Feb-13 02:33N 44°30' E 038°06'0 0.0
2017-Feb-13 01:30N 44°30' E 038°06'0 0.0
2017-Feb-13 00:27N 44°30' E 038°06'0 0.0
2017-Feb-12 23:33N 44°30' E 038°06'0 0.0
2017-Feb-12 22:30N 44°30' E 038°06'0 0.0
2017-Feb-12 21:18N 44°30' E 038°06'0 0.0
2017-Feb-12 20:21N 44°30' E 038°06'0 0.0
2017-Feb-12 19:21N 44°30' E 038°06'0 0.0
2017-Feb-12 18:30N 44°30' E 038°06'0 0.0
2017-Feb-12 17:33N 44°30' E 038°06'0 0.0
2017-Feb-12 16:24N 44°30' E 038°06'0 0.0
2017-Feb-12 15:27N 44°30' E 038°06'0 0.0
2017-Feb-12 14:33N 44°30' E 038°06'0 0.0
2017-Feb-12 13:33N 44°30' E 038°06'0 0.0
2017-Feb-12 12:33N 44°30' E 038°06'0 0.0
2017-Feb-12 11:33N 44°30' E 038°06'0 0.0
2017-Feb-12 10:30N 44°30' E 038°06'0 0.0
2017-Feb-12 09:27N 44°30' E 038°06'0 0.0
2017-Feb-12 08:33N 44°30' E 038°06'0 0.0
2017-Feb-12 07:33N 44°30' E 038°06'0 0.0
2017-Feb-12 06:33N 44°30' E 038°06'0 0.0
2017-Feb-12 05:33N 44°30' E 038°06'0 0.0
2017-Feb-12 04:33N 44°30' E 038°06'0 0.0
2017-Feb-12 03:33N 44°30' E 038°06'0 0.0
2017-Feb-12 02:33N 44°30' E 038°06'0 0.0
2017-Feb-12 01:33N 44°30' E 038°06'0 0.0
2017-Feb-12 00:27N 44°30' E 038°06'0 0.0
2017-Feb-11 23:33N 44°30' E 038°06'0 0.0
2017-Feb-11 22:33N 44°30' E 038°06'0 0.0
2017-Feb-11 21:33N 44°30' E 038°06'0 0.0
2017-Feb-11 20:03N 44°30' E 038°06'0 0.0
2017-Feb-11 19:24N 44°30' E 038°06'0 0.1
2017-Feb-11 18:33N 44°30' E 038°06'0 0.0
2017-Feb-11 17:30N 44°30' E 038°06'0 0.0
2017-Feb-11 16:27N 44°30' E 038°06'0 0.0
2017-Feb-11 15:27N 44°30' E 038°06'0 0.0
2017-Feb-11 14:33N 44°30' E 038°06'0 0.0
2017-Feb-11 13:33N 44°30' E 038°06'0 0.0
2017-Feb-11 12:33N 44°30' E 038°06'0 0.0
2017-Feb-11 11:30N 44°30' E 038°06'0 0.0
2017-Feb-11 10:30N 44°30' E 038°06'0 0.0
2017-Feb-11 08:33N 44°30' E 038°06'0 0.0
2017-Feb-11 07:33N 44°30' E 038°06'0 0.0
2017-Feb-11 06:33N 44°30' E 038°06'0 0.0
2017-Feb-11 05:30N 44°30' E 038°06'0 0.0
2017-Feb-11 04:30N 44°30' E 038°06'0 0.0
2017-Feb-11 02:18N 44°30' E 038°06'0 0.0
2017-Feb-11 01:15N 44°30' E 038°06'0 0.0
2017-Feb-11 00:21N 44°30' E 038°06'0 0.0
2017-Feb-10 23:33N 44°30' E 038°06'0 0.0
2017-Feb-10 22:09N 44°30' E 038°06'0 0.0
2017-Feb-10 21:12N 44°30' E 038°06'0 0.0
2017-Feb-10 20:33N 44°30' E 038°06'0 0.0
2017-Feb-10 19:27N 44°30' E 038°06'0 0.0
2017-Feb-10 18:15N 44°30' E 038°06'0 0.0
2017-Feb-10 16:09N 44°30' E 038°06'0 0.0
2017-Feb-10 15:18N 44°30' E 038°06'0 0.0
2017-Feb-10 14:30N 44°30' E 038°06'0 0.0
2017-Feb-10 13:09N 44°30' E 038°06'0 0.1
2017-Feb-10 12:33N 44°30' E 038°06'0 0.0
2017-Feb-10 11:09N 44°30' E 038°06'0 0.0
2017-Feb-10 10:27N 44°30' E 038°06'0 0.0
2017-Feb-10 09:15N 44°30' E 038°06'0 0.0
2017-Feb-10 08:30N 44°30' E 038°06'0 0.0
2017-Feb-10 07:30N 44°30' E 038°06'0 0.0
2017-Feb-10 06:33N 44°30' E 038°06'0 0.0
2017-Feb-10 05:33N 44°30' E 038°06'0 0.0
2017-Feb-10 04:33N 44°30' E 038°06'0 0.0
2017-Feb-10 03:27N 44°30' E 038°06'0 0.0
2017-Feb-10 02:27N 44°30' E 038°06'0 0.0
2017-Feb-10 01:24N 44°30' E 038°06'0 0.0
2017-Feb-10 00:18N 44°30' E 038°06'0 0.0
2017-Feb-09 23:33N 44°30' E 038°06'0 0.0
2017-Feb-09 22:33N 44°30' E 038°06'0 0.0
2017-Feb-09 21:30N 44°30' E 038°06'0 0.0
2017-Feb-09 19:30N 44°30' E 038°06'0 0.0
2017-Feb-09 18:30N 44°30' E 038°06'0 0.0
2017-Feb-09 17:24N 44°30' E 038°06'0 0.0
2017-Feb-09 15:27N 44°30' E 038°06'0 0.0
2017-Feb-09 14:33N 44°30' E 038°06'0 0.0
2017-Feb-09 13:30N 44°30' E 038°06'0 0.0
2017-Feb-09 12:30N 44°30' E 038°06'0 0.0
2017-Feb-09 11:33N 44°30' E 038°06'0 0.0
2017-Feb-09 10:30N 44°30' E 038°06'0 0.0
2017-Feb-09 09:27N 44°30' E 038°06'0 0.0
2017-Feb-09 08:33N 44°30' E 038°06'0 0.0
2017-Feb-09 07:30N 44°30' E 038°06'0 0.0
2017-Feb-09 06:30N 44°30' E 038°06'0 0.0
2017-Feb-09 05:33N 44°30' E 038°06'0 0.0
2017-Feb-09 04:27N 44°30' E 038°06'0 0.0
2017-Feb-09 03:21N 44°30' E 038°06'0 0.0
2017-Feb-09 02:33N 44°30' E 038°06'0 0.0
2017-Feb-09 01:12N 44°30' E 038°06'0 0.0
2017-Feb-09 00:33N 44°30' E 038°06'0 0.0
2017-Feb-08 23:24N 44°30' E 038°06'0 0.0
2017-Feb-08 22:24N 44°30' E 038°06'0 0.0
2017-Feb-08 21:12N 44°30' E 038°06'0 0.0
2017-Feb-08 20:33N 44°30' E 038°06'0 0.0
2017-Feb-08 19:27N 44°30' E 038°06'0 0.0
2017-Feb-08 18:30N 44°30' E 038°06'0 0.0
2017-Feb-08 17:33N 44°30' E 038°06'0 0.0
2017-Feb-08 16:06N 44°30' E 038°06'0 0.0
2017-Feb-08 15:33N 44°30' E 038°06'0 0.0
2017-Feb-08 14:33N 44°30' E 038°06'1 0.8
2017-Feb-08 13:33N 44°30' E 038°05'1010.1
2017-Feb-08 12:33N 44°35' E 037°53'4 3.7
2017-Feb-08 11:25N 44°39' E 037°53'0 0.0
2017-Feb-08 10:31N 44°39' E 037°53'0 0.0
2017-Feb-08 09:31N 44°39' E 037°53'0 0.0
2017-Feb-08 08:31N 44°39' E 037°53'0 0.0
2017-Feb-08 07:31N 44°39' E 037°53'0 0.0
2017-Feb-08 06:31N 44°39' E 037°53'0 0.0
2017-Feb-08 05:31N 44°39' E 037°53'0 0.0
2017-Feb-08 04:31N 44°39' E 037°53'0 0.0
2017-Feb-08 03:31N 44°39' E 037°53'0 0.0
2017-Feb-08 02:31N 44°39' E 037°53'0 0.0
2017-Feb-08 01:31N 44°39' E 037°53'0 0.0
2017-Feb-08 00:31N 44°39' E 037°53'0 0.0
2017-Feb-07 23:31N 44°39' E 037°53'0 0.0
2017-Feb-07 22:31N 44°39' E 037°53'0 0.0
2017-Feb-07 21:31N 44°39' E 037°53'0 0.1
2017-Feb-07 20:28N 44°39' E 037°53'0 0.1
2017-Feb-07 19:31N 44°40' E 037°54'0 0.0
2017-Feb-07 18:31N 44°40' E 037°53'0 0.0
2017-Feb-07 17:31N 44°40' E 037°53'0 0.0
2017-Feb-07 16:31N 44°40' E 037°53'0 0.0
2017-Feb-07 15:31N 44°40' E 037°53'0 0.1
2017-Feb-07 14:31N 44°40' E 037°53'0 0.0
2017-Feb-07 13:28N 44°40' E 037°53'0 0.0
2017-Feb-07 12:31N 44°40' E 037°53'0 0.1
2017-Feb-07 11:31N 44°40' E 037°53'0 0.0
2017-Feb-07 10:28N 44°40' E 037°53'0 0.1
2017-Feb-07 09:31N 44°40' E 037°53'0 0.1
2017-Feb-07 08:31N 44°40' E 037°53'0 0.0
2017-Feb-07 07:31N 44°40' E 037°53'0 0.0
2017-Feb-07 06:31N 44°40' E 037°53'0 0.0
2017-Feb-07 05:28N 44°40' E 037°53'0 0.0
2017-Feb-07 04:31N 44°40' E 037°53'0 0.0
2017-Feb-07 03:31N 44°40' E 037°53'0 0.0
2017-Feb-07 02:31N 44°40' E 037°53'0 0.0
2017-Feb-07 01:31N 44°40' E 037°53'0 0.0
2017-Feb-07 00:28N 44°40' E 037°53'0 0.0
2017-Feb-06 23:31N 44°40' E 037°53'0 0.0
2017-Feb-06 22:31N 44°40' E 037°53'0 0.0
2017-Feb-06 21:31N 44°40' E 037°53'0 0.0
2017-Feb-06 20:31N 44°40' E 037°53'0 0.0
2017-Feb-06 19:28N 44°40' E 037°53'0 0.0
2017-Feb-06 18:28N 44°40' E 037°53'0 0.0
2017-Feb-06 17:31N 44°40' E 037°53'0 0.0
2017-Feb-06 16:31N 44°40' E 037°53'0 0.0
2017-Feb-06 15:31N 44°40' E 037°53'0 0.0
2017-Feb-06 14:31N 44°40' E 037°54'0 0.0
2017-Feb-06 13:31N 44°40' E 037°53'0 0.0
2017-Feb-06 12:31N 44°40' E 037°53'0 0.0
2017-Feb-06 11:31N 44°40' E 037°53'0 0.0
2017-Feb-06 10:31N 44°40' E 037°53'0 0.0
2017-Feb-06 09:31N 44°40' E 037°53'0 0.1
2017-Feb-06 08:31N 44°40' E 037°53'0 0.0
2017-Feb-06 07:31N 44°40' E 037°53'0 0.0
2017-Feb-06 06:31N 44°40' E 037°53'0 0.0
2017-Feb-06 05:31N 44°40' E 037°53'0 0.0
2017-Feb-06 04:28N 44°40' E 037°53'0 0.0
2017-Feb-06 03:31N 44°40' E 037°53'0 0.0
2017-Feb-06 02:28N 44°40' E 037°53'0 0.0
2017-Feb-06 01:31N 44°40' E 037°53'0 0.0
2017-Feb-06 00:31N 44°40' E 037°53'0 0.0
2017-Feb-05 23:31N 44°40' E 037°53'0 0.0
2017-Feb-05 22:31N 44°40' E 037°53'  

Dump ship's entire track history